This is the latest recevied weather packets stored in our database for station/object OK0EK-12. If no packets are shown the sender has not sent any weather packets the latest 1 day(s).
| Time | Temp. | Humidity | Pressure | Rain* | Wind** | Luminosity | Snow |
|---|---|---|---|---|---|---|---|
| 1778054681 | 23.33° C | 40% | 1086.6 hPa | - | - | - | - |
| 1778053483 | 22.78° C | 43% | 1086.7 hPa | - | - | - | - |
| 1778052885 | 22.22° C | 44% | 1086.6 hPa | - | - | - | - |
| 1778051088 | 21.11° C | 46% | 1086.8 hPa | - | - | - | - |
| 1778049890 | 21.11° C | 46% | 1086.7 hPa | - | - | - | - |
| 1778048692 | 20.56° C | 48% | 1086.6 hPa | - | - | - | - |
| 1778047494 | 19.44° C | 48% | 1086.4 hPa | - | - | - | - |
| 1778046896 | 18.89° C | 50% | 1086.5 hPa | - | - | - | - |
| 1778045698 | 17.22° C | 54% | 1086.4 hPa | - | - | - | - |
| 1778043902 | 16.11° C | 57% | 1086.1 hPa | - | - | - | - |
| 1778039110 | 12.78° C | 65% | 1085.6 hPa | - | - | - | - |
| 1778038512 | 13.33° C | 64% | 1085.4 hPa | - | - | - | - |
| 1778037912 | 13.33° C | 65% | 1085.4 hPa | - | - | - | - |
| 1778037312 | 12.78° C | 65% | 1085.3 hPa | - | - | - | - |
| 1778036113 | 12.78° C | 65% | 1085.3 hPa | - | - | - | - |
| 1778035513 | 12.78° C | 66% | 1085.4 hPa | - | - | - | - |
| 1778034913 | 11.67° C | 68% | 1085.5 hPa | - | - | - | - |
| 1778034315 | 11.67° C | 68% | 1085.6 hPa | - | - | - | - |
| 1778033716 | 12.22° C | 65% | 1085.5 hPa | - | - | - | - |
| 1778032514 | 11.67° C | 66% | 1085.6 hPa | - | - | - | - |
| 1778031915 | 12.22° C | 65% | 1085.5 hPa | - | - | - | - |
| 1778031317 | 12.22° C | 64% | 1085.6 hPa | - | - | - | - |
| 1778030718 | 12.22° C | 63% | 1085.6 hPa | - | - | - | - |
| 1778030120 | 12.78° C | 62% | 1085.6 hPa | - | - | - | - |
| 1778029997 | 12.78° C | 63% | 1085.5 hPa | - | - | - | - |
* Rain since midnight (hover to see other rain measurements)
** Current wind speed in m/s (hover to see current wind gust speed)